Time;durP1;ratioP1;P1;durP2;ratioP2;P2;SDS_P1;SDS_P2;PMS_P1;PMS_P2;Temp;Humidity;BMP_temperature;BMP_pressure;BME280_temperature;BME280_humidity;BME280_pressure;Samples;Min_cycle;Max_cycle;Signal;HPM_P1;HPM_P2
2023/01/11 00:00:48;;;;;;;1.20;0.60;;;;;;;;;;4994186;28;20040;-76
2023/01/11 00:03:13;;;;;;;2.15;0.40;;;;;;;;;;5012043;28;20496;-75
2023/01/11 00:05:40;;;;;;;1.55;0.70;;;;;;;;;;5011366;28;20044;-76
2023/01/11 00:08:05;;;;;;;1.40;0.73;;;;;;;;;;5012073;28;20013;-76
2023/01/11 00:10:32;;;;;;;3.30;0.75;;;;;;;;;;5011949;28;20433;-76
2023/01/11 00:12:57;;;;;;;3.70;0.60;;;;;;;;;;5012041;28;20018;-76
2023/01/11 00:15:22;;;;;;;5.32;0.85;;;;;;;;;;5011850;28;20041;-75
2023/01/11 00:17:47;;;;;;;4.53;0.80;;;;;;;;;;4993882;28;20029;-76
2023/01/11 00:20:14;;;;;;;1.85;0.80;;;;;;;;;;5011712;28;20017;-75
2023/01/11 00:22:39;;;;;;;3.47;0.90;;;;;;;;;;4994151;28;20029;-75
2023/01/11 00:25:04;;;;;;;2.80;0.80;;;;;;;;;;5010293;28;20017;-76
2023/01/11 00:27:30;;;;;;;3.53;0.88;;;;;;;;;;4994127;28;20057;-76
2023/01/11 00:29:55;;;;;;;3.58;1.08;;;;;;;;;;4993786;28;20028;-76
2023/01/11 00:32:20;;;;;;;3.22;1.15;;;;;;;;;;5011888;28;20018;-76
2023/01/11 00:34:45;;;;;;;2.33;0.85;;;;;;;;;;5011715;28;20014;-75
2023/01/11 00:37:11;;;;;;;1.55;0.93;;;;;;;;;;5011948;28;20017;-75
2023/01/11 00:39:36;;;;;;;4.28;1.17;;;;;;;;;;4993806;28;20746;-76
2023/01/11 00:50:28;;;;;;;4.82;1.40;;;;;;;;;;4967830;28;20113;-75
2023/01/11 00:52:53;;;;;;;3.25;1.58;;;;;;;;;;4994180;28;20033;-76
2023/01/11 00:55:18;;;;;;;5.93;1.30;;;;;;;;;;4993945;28;20026;-76
2023/01/11 00:57:44;;;;;;;4.13;1.80;;;;;;;;;;5011644;28;20010;-76
2023/01/11 01:00:09;;;;;;;4.72;1.63;;;;;;;;;;4993129;28;20409;-75
2023/01/11 01:02:34;;;;;;;2.88;1.23;;;;;;;;;;5011570;28;20018;-76
2023/01/11 01:04:59;;;;;;;3.75;1.40;;;;;;;;;;5011224;28;20021;-76
2023/01/11 01:07:25;;;;;;;6.07;1.45;;;;;;;;;;4994044;28;20025;-75
2023/01/11 01:09:50;;;;;;;4.85;1.38;;;;;;;;;;5011215;28;20464;-75
2023/01/11 01:14:24;;;;;;;3.10;1.40;;;;;;;;;;5011713;28;20014;-76
2023/01/11 01:15:01;;;;;;;5.47;1.52;;;;;;;;;;5011482;28;20029;-76
2023/01/11 01:17:26;;;;;;;5.38;1.55;;;;;;;;;;5010567;28;20025;-75
2023/01/11 01:19:51;;;;;;;5.75;1.02;;;;;;;;;;5011596;28;20054;-75
2023/01/11 01:22:16;;;;;;;3.78;1.20;;;;;;;;;;4994116;28;20026;-75
2023/01/11 01:24:41;;;;;;;3.55;1.40;;;;;;;;;;5011441;28;20115;-76
2023/01/11 01:27:07;;;;;;;3.42;1.58;;;;;;;;;;5011597;28;20414;-76
2023/01/11 01:29:32;;;;;;;3.75;1.30;;;;;;;;;;4993604;28;20026;-75
2023/01/11 01:31:57;;;;;;;9.13;1.73;;;;;;;;;;5011368;28;20101;-76
2023/01/11 01:34:22;;;;;;;6.50;1.52;;;;;;;;;;4992885;28;20030;-76
2023/01/11 01:36:47;;;;;;;3.67;1.33;;;;;;;;;;4994917;28;20033;-75
2023/01/11 01:39:13;;;;;;;3.88;1.02;;;;;;;;;;5014743;28;20171;-75
2023/01/11 01:41:38;;;;;;;4.43;1.15;;;;;;;;;;4997241;28;20857;-75
2023/01/11 01:44:23;;;;;;;2.17;1.13;;;;;;;;;;5014875;28;20014;-75
2023/01/11 01:46:49;;;;;;;3.38;1.45;;;;;;;;;;5014605;28;20030;-75
2023/01/11 01:49:14;;;;;;;2.35;1.40;;;;;;;;;;4995481;28;20034;-75
2023/01/11 01:51:47;;;;;;;4.97;1.52;;;;;;;;;;5014772;28;20018;-75
2023/01/11 01:54:15;;;;;;;3.97;1.00;;;;;;;;;;4996968;28;20010;-75
2023/01/11 01:56:46;;;;;;;5.05;1.35;;;;;;;;;;5014693;28;20026;-75
2023/01/11 01:59:14;;;;;;;3.25;0.98;;;;;;;;;;5014298;28;20456;-75
2023/01/11 02:01:48;;;;;;;3.05;1.20;;;;;;;;;;4997188;28;20033;-75
2023/01/11 02:04:26;;;;;;;6.07;1.13;;;;;;;;;;5014043;28;20022;-75
2023/01/11 02:06:53;;;;;;;4.05;1.10;;;;;;;;;;4996726;28;20021;-75
2023/01/11 02:09:22;;;;;;;2.15;1.15;;;;;;;;;;4996291;28;20385;-75
2023/01/11 02:11:48;;;;;;;3.40;1.00;;;;;;;;;;5014291;28;20021;-76
2023/01/11 02:14:15;;;;;;;1.23;0.88;;;;;;;;;;4996708;28;20377;-75
2023/01/11 02:16:40;;;;;;;3.47;1.10;;;;;;;;;;5014425;28;20018;-75
2023/01/11 02:19:08;;;;;;;5.57;1.05;;;;;;;;;;5014039;28;20136;-75
2023/01/11 02:21:51;;;;;;;1.40;1.00;;;;;;;;;;5014197;28;20080;-75
2023/01/11 02:24:23;;;;;;;0.95;0.68;;;;;;;;;;4995526;28;20041;-75
2023/01/11 02:26:54;;;;;;;4.15;1.20;;;;;;;;;;4995487;28;20018;-75
2023/01/11 02:29:30;;;;;;;3.30;0.93;;;;;;;;;;5013861;28;20145;-75
2023/01/11 02:32:05;;;;;;;2.72;1.10;;;;;;;;;;4996345;28;20372;-75
2023/01/11 02:34:38;;;;;;;3.65;0.98;;;;;;;;;;4994668;28;20429;-75
2023/01/11 02:37:12;;;;;;;5.03;1.98;;;;;;;;;;4996092;28;20009;-75
2023/01/11 02:39:50;;;;;;;4.30;0.98;;;;;;;;;;5013569;28;20026;-75
2023/01/11 02:45:24;;;;;;;1.35;0.70;;;;;;;;;;5002664;28;20064;-76
2023/01/11 02:47:49;;;;;;;2.45;0.90;;;;;;;;;;5012961;28;20029;-75
2023/01/11 02:50:20;;;;;;;2.47;0.70;;;;;;;;;;5013432;28;20018;-76
2023/01/11 02:52:49;;;;;;;4.57;0.88;;;;;;;;;;5013115;28;20022;-75
2023/01/11 02:55:15;;;;;;;3.38;0.70;;;;;;;;;;4995418;28;20385;-75
2023/01/11 02:57:41;;;;;;;5.95;0.90;;;;;;;;;;5013525;28;20017;-75
2023/01/11 03:00:07;;;;;;;1.48;0.63;;;;;;;;;;4994719;28;20033;-75
2023/01/11 03:02:32;;;;;;;0.93;0.60;;;;;;;;;;4995629;28;20026;-76
2023/01/11 03:04:57;;;;;;;1.98;0.70;;;;;;;;;;5013030;28;20037;-75
2023/01/11 03:07:38;;;;;;;4.40;0.70;;;;;;;;;;4995643;28;20018;-75
2023/01/11 03:10:16;;;;;;;1.35;0.70;;;;;;;;;;4995479;28;20028;-76
2023/01/11 03:12:51;;;;;;;0.73;0.70;;;;;;;;;;4995697;28;20022;-75
2023/01/11 03:15:34;;;;;;;0.90;0.70;;;;;;;;;;5013105;28;20025;-75
2023/01/11 03:18:05;;;;;;;3.40;0.95;;;;;;;;;;5011221;28;20041;-75
2023/01/11 03:20:33;;;;;;;2.50;0.80;;;;;;;;;;4995705;28;20021;-75
2023/01/11 03:23:03;;;;;;;1.85;0.63;;;;;;;;;;4995369;28;20025;-75
2023/01/11 03:25:34;;;;;;;2.10;0.70;;;;;;;;;;4995258;28;20033;-76
2023/01/11 03:28:12;;;;;;;0.97;0.60;;;;;;;;;;4995578;28;20129;-76
2023/01/11 03:30:42;;;;;;;2.25;0.50;;;;;;;;;;4995313;28;20315;-75
2023/01/11 03:33:15;;;;;;;0.90;0.63;;;;;;;;;;4995322;28;20022;-76
2023/01/11 03:35:46;;;;;;;2.00;0.75;;;;;;;;;;4994209;28;20068;-75
2023/01/11 03:38:12;;;;;;;2.38;0.60;;;;;;;;;;4994842;28;20049;-75
2023/01/11 03:40:39;;;;;;;1.17;0.50;;;;;;;;;;5012504;28;20066;-75
2023/01/11 03:43:10;;;;;;;2.45;0.60;;;;;;;;;;4995041;28;20365;-75
2023/01/11 03:45:41;;;;;;;1.02;0.60;;;;;;;;;;4982514;28;20018;-75
2023/01/11 03:48:09;;;;;;;1.60;0.63;;;;;;;;;;4994840;28;20414;-76
2023/01/11 03:50:34;;;;;;;1.67;0.47;;;;;;;;;;5011500;28;20018;-75
2023/01/11 03:53:02;;;;;;;0.52;0.50;;;;;;;;;;4994785;28;20386;-75
2023/01/11 03:55:29;;;;;;;0.65;0.40;;;;;;;;;;4994804;28;20121;-75
2023/01/11 03:57:54;;;;;;;0.70;0.50;;;;;;;;;;4994461;28;20022;-75
2023/01/11 04:00:20;;;;;;;0.47;0.47;;;;;;;;;;5011308;28;20028;-75
2023/01/11 04:02:46;;;;;;;5.25;0.85;;;;;;;;;;4994301;28;20088;-75
2023/01/11 04:05:11;;;;;;;3.67;0.70;;;;;;;;;;5012647;28;20018;-75
2023/01/11 04:07:36;;;;;;;2.30;0.40;;;;;;;;;;4993813;28;20098;-75
2023/01/11 04:10:01;;;;;;;0.40;0.40;;;;;;;;;;5011993;28;20014;-75
2023/01/11 04:12:27;;;;;;;0.73;0.40;;;;;;;;;;4994604;28;20364;-75
2023/01/11 04:14:52;;;;;;;0.70;0.50;;;;;;;;;;5011990;28;20460;-75
2023/01/11 04:17:17;;;;;;;0.35;0.30;;;;;;;;;;5012569;28;20025;-75
2023/01/11 04:19:42;;;;;;;1.20;0.52;;;;;;;;;;4993879;28;20021;-75
2023/01/11 04:22:08;;;;;;;0.70;0.40;;;;;;;;;;5012092;28;20790;-75
2023/01/11 04:24:33;;;;;;;0.90;0.47;;;;;;;;;;5011957;28;20451;-75
2023/01/11 04:26:58;;;;;;;0.68;0.40;;;;;;;;;;4993589;28;20036;-75
2023/01/11 04:29:23;;;;;;;0.40;0.40;;;;;;;;;;4994091;28;20026;-75
2023/01/11 04:31:48;;;;;;;0.35;0.32;;;;;;;;;;5011775;28;20022;-75
2023/01/11 04:34:14;;;;;;;0.50;0.40;;;;;;;;;;5011836;28;20381;-75
2023/01/11 04:36:39;;;;;;;0.93;0.30;;;;;;;;;;4994064;28;20025;-75
2023/01/11 04:39:05;;;;;;;1.20;0.40;;;;;;;;;;5011706;28;20097;-75
2023/01/11 04:44:14;;;;;;;0.40;0.40;;;;;;;;;;5006368;28;20045;-75
2023/01/11 04:46:39;;;;;;;0.40;0.40;;;;;;;;;;4994117;28;20022;-75
2023/01/11 04:49:04;;;;;;;0.40;0.40;;;;;;;;;;4993722;28;20029;-75
2023/01/11 04:51:29;;;;;;;0.43;0.30;;;;;;;;;;4994164;28;20057;-75
2023/01/11 04:53:55;;;;;;;0.45;0.45;;;;;;;;;;5011678;28;20014;-75
2023/01/11 04:56:20;;;;;;;1.30;0.60;;;;;;;;;;5011709;28;20088;-75
2023/01/11 04:58:45;;;;;;;0.90;0.40;;;;;;;;;;5011872;28;20523;-75
2023/01/11 05:01:11;;;;;;;0.43;0.40;;;;;;;;;;4993174;28;20022;-75
2023/01/11 05:03:37;;;;;;;1.35;0.50;;;;;;;;;;5011524;28;20060;-75
2023/01/11 05:06:03;;;;;;;1.00;0.60;;;;;;;;;;5011631;28;20481;-75
2023/01/11 05:08:28;;;;;;;0.90;0.57;;;;;;;;;;4993802;28;20057;-76
2023/01/11 05:10:54;;;;;;;0.50;0.47;;;;;;;;;;4994073;28;20104;-75
2023/01/11 05:13:19;;;;;;;0.77;0.50;;;;;;;;;;5015244;28;20018;-75
2023/01/11 05:15:45;;;;;;;1.33;0.47;;;;;;;;;;5015634;28;20071;-76
2023/01/11 05:18:10;;;;;;;0.47;0.38;;;;;;;;;;5014710;28;20397;-75
2023/01/11 05:20:35;;;;;;;0.65;0.30;;;;;;;;;;4997685;28;20453;-75
2023/01/11 05:23:00;;;;;;;1.65;0.50;;;;;;;;;;5015078;28;20018;-75
2023/01/11 05:25:26;;;;;;;2.08;0.57;;;;;;;;;;4997416;28;20517;-75
2023/01/11 05:27:51;;;;;;;1.40;0.60;;;;;;;;;;4997474;28;20032;-76
2023/01/11 05:30:16;;;;;;;0.80;0.50;;;;;;;;;;4997267;28;20026;-75
2023/01/11 05:32:41;;;;;;;0.88;0.60;;;;;;;;;;5015225;28;20022;-75
2023/01/11 05:35:09;;;;;;;3.05;0.70;;;;;;;;;;4996939;28;20034;-75
2023/01/11 05:37:35;;;;;;;2.67;1.10;;;;;;;;;;5014238;28;20052;-75
2023/01/11 05:40:00;;;;;;;1.35;0.85;;;;;;;;;;5014584;28;20029;-75
2023/01/11 05:42:26;;;;;;;4.05;1.00;;;;;;;;;;5014818;28;20050;-75
2023/01/11 05:47:35;;;;;;;2.92;0.80;;;;;;;;;;5011869;28;20025;-76
2023/01/11 05:50:00;;;;;;;4.25;1.20;;;;;;;;;;5014386;28;20014;-76
2023/01/11 05:52:25;;;;;;;3.90;1.00;;;;;;;;;;4996969;28;20021;-75
2023/01/11 05:54:50;;;;;;;2.13;0.95;;;;;;;;;;4996515;28;20465;-76
2023/01/11 05:57:16;;;;;;;3.72;1.15;;;;;;;;;;4997039;28;20044;-75
2023/01/11 05:59:41;;;;;;;3.78;1.10;;;;;;;;;;5011756;28;20046;-75
2023/01/11 06:02:06;;;;;;;6.35;1.30;;;;;;;;;;5013047;28;20430;-75
2023/01/11 06:04:31;;;;;;;1.38;0.90;;;;;;;;;;5014119;28;20080;-75
2023/01/11 06:06:56;;;;;;;6.32;1.23;;;;;;;;;;5012507;28;20021;-75
2023/01/11 06:09:22;;;;;;;3.95;1.15;;;;;;;;;;5012116;28;20022;-75
2023/01/11 06:11:49;;;;;;;4.88;1.20;;;;;;;;;;4994338;28;20026;-75
2023/01/11 06:14:14;;;;;;;3.30;1.27;;;;;;;;;;5013681;28;20026;-75
2023/01/11 06:16:39;;;;;;;3.75;1.30;;;;;;;;;;5014266;28;20014;-75
2023/01/11 06:19:04;;;;;;;5.40;1.40;;;;;;;;;;4996608;28;20465;-75
2023/01/11 06:21:30;;;;;;;7.95;1.67;;;;;;;;;;4996595;28;20022;-75
2023/01/11 06:23:55;;;;;;;4.22;1.50;;;;;;;;;;4995617;28;20022;-75
2023/01/11 06:26:20;;;;;;;3.45;1.40;;;;;;;;;;5012120;28;20499;-75
2023/01/11 06:28:46;;;;;;;4.93;1.50;;;;;;;;;;5005075;28;20101;-75
2023/01/11 06:31:11;;;;;;;6.72;1.33;;;;;;;;;;5014168;28;20124;-76
2023/01/11 06:33:37;;;;;;;8.80;1.70;;;;;;;;;;4995997;28;20010;-75
2023/01/11 06:36:06;;;;;;;8.05;1.52;;;;;;;;;;5013891;28;20018;-76
2023/01/11 06:38:31;;;;;;;2.92;1.60;;;;;;;;;;5013542;28;20044;-75
2023/01/11 06:40:59;;;;;;;6.72;1.55;;;;;;;;;;4995653;28;20029;-76
2023/01/11 06:43:24;;;;;;;6.28;1.80;;;;;;;;;;5012746;28;20449;-75
2023/01/11 06:45:50;;;;;;;12.90;2.17;;;;;;;;;;5013486;28;20064;-75
2023/01/11 06:48:16;;;;;;;10.82;1.98;;;;;;;;;;5013534;28;20426;-75
2023/01/11 06:50:41;;;;;;;8.75;2.15;;;;;;;;;;5014156;28;20105;-75
2023/01/11 06:53:06;;;;;;;12.05;2.70;;;;;;;;;;5013968;28;20624;-75
2023/01/11 06:55:32;;;;;;;10.10;2.03;;;;;;;;;;5012312;28;20049;-75
2023/01/11 06:57:57;;;;;;;10.05;2.28;;;;;;;;;;5011302;28;20511;-75
2023/01/11 07:00:22;;;;;;;11.00;2.58;;;;;;;;;;4990211;28;20362;-75
2023/01/11 07:02:48;;;;;;;16.40;2.30;;;;;;;;;;4994301;28;20129;-75
2023/01/11 07:05:14;;;;;;;15.93;2.35;;;;;;;;;;4995403;28;20014;-75
2023/01/11 07:07:39;;;;;;;13.93;2.78;;;;;;;;;;5011774;28;20038;-75
2023/01/11 07:10:06;;;;;;;18.23;2.65;;;;;;;;;;5010789;28;20047;-75
2023/01/11 07:12:32;;;;;;;19.00;2.30;;;;;;;;;;4994930;28;20096;-75
2023/01/11 07:14:57;;;;;;;14.10;2.78;;;;;;;;;;4993742;28;20022;-76
2023/01/11 07:17:22;;;;;;;7.22;2.08;;;;;;;;;;4995642;28;20473;-75
2023/01/11 07:19:48;;;;;;;11.00;2.83;;;;;;;;;;5012840;28;20471;-75
2023/01/11 07:22:14;;;;;;;13.63;3.08;;;;;;;;;;5007946;28;20030;-75
2023/01/11 07:24:40;;;;;;;16.60;3.55;;;;;;;;;;5010555;28;20137;-75
2023/01/11 07:27:05;;;;;;;18.42;3.88;;;;;;;;;;5002019;28;20510;-75
2023/01/11 07:29:30;;;;;;;18.15;2.95;;;;;;;;;;5011862;28;20053;-75
2023/01/11 07:31:56;;;;;;;15.15;3.90;;;;;;;;;;5009985;28;20022;-75
2023/01/11 07:34:21;;;;;;;13.73;2.97;;;;;;;;;;4994906;28;20461;-76
2023/01/11 07:36:46;;;;;;;20.92;3.47;;;;;;;;;;4993667;28;20413;-76
2023/01/11 07:39:11;;;;;;;30.67;4.70;;;;;;;;;;5012196;28;20022;-75
2023/01/11 07:44:20;;;;;;;14.07;3.60;;;;;;;;;;5008403;28;20057;-75
2023/01/11 07:46:46;;;;;;;15.45;3.13;;;;;;;;;;5003180;28;20085;-76
2023/01/11 07:49:11;;;;;;;14.70;2.90;;;;;;;;;;5011816;28;20033;-75
2023/01/11 07:51:36;;;;;;;13.15;3.10;;;;;;;;;;4993763;28;20033;-75
2023/01/11 07:54:02;;;;;;;26.27;3.92;;;;;;;;;;4994179;28;20060;-76
2023/01/11 07:56:28;;;;;;;16.60;3.53;;;;;;;;;;5001303;28;20056;-75
2023/01/11 07:58:53;;;;;;;20.20;3.20;;;;;;;;;;5012366;28;20585;-76
2023/01/11 08:01:19;;;;;;;18.05;3.33;;;;;;;;;;4997315;28;20468;-76
2023/01/11 08:03:44;;;;;;;18.83;3.35;;;;;;;;;;5010562;28;20033;-75
2023/01/11 08:06:09;;;;;;;18.88;2.65;;;;;;;;;;5012165;28;20672;-75
2023/01/11 08:08:34;;;;;;;17.05;4.35;;;;;;;;;;4994523;28;20029;-75
2023/01/11 08:16:28;;;;;;;15.73;2.92;;;;;;;;;;5005066;28;20045;-77
2023/01/11 08:18:53;;;;;;;20.48;3.30;;;;;;;;;;5001242;28;20022;-76
2023/01/11 08:21:20;;;;;;;13.52;2.70;;;;;;;;;;4989212;28;20030;-75
2023/01/11 08:23:45;;;;;;;13.95;3.00;;;;;;;;;;4988516;28;20025;-76
2023/01/11 08:26:15;;;;;;;22.02;2.92;;;;;;;;;;4997921;28;20209;-75
2023/01/11 08:28:40;;;;;;;17.00;3.15;;;;;;;;;;5009308;28;20033;-76
2023/01/11 08:31:07;;;;;;;19.55;2.72;;;;;;;;;;5009483;28;20022;-76
2023/01/11 08:33:32;;;;;;;17.90;2.60;;;;;;;;;;5009414;28;20025;-76
2023/01/11 08:36:03;;;;;;;12.20;2.22;;;;;;;;;;5011398;28;20026;-75
2023/01/11 08:38:28;;;;;;;14.95;2.70;;;;;;;;;;4994152;28;20046;-76
2023/01/11 08:40:53;;;;;;;13.40;2.20;;;;;;;;;;4995710;28;20469;-76
2023/01/11 08:43:18;;;;;;;12.57;2.13;;;;;;;;;;4996098;28;20026;-76
2023/01/11 08:45:43;;;;;;;12.35;2.47;;;;;;;;;;5004853;28;20053;-75
2023/01/11 08:48:10;;;;;;;12.88;1.50;;;;;;;;;;4992768;28;20025;-76
2023/01/11 08:50:36;;;;;;;20.33;2.00;;;;;;;;;;5011321;28;20121;-75
2023/01/11 08:53:01;;;;;;;11.68;1.88;;;;;;;;;;4993866;28;20097;-76
2023/01/11 08:55:26;;;;;;;12.57;1.33;;;;;;;;;;4993880;28;20433;-76
2023/01/11 08:57:51;;;;;;;12.93;1.73;;;;;;;;;;5011508;28;20412;-76
2023/01/11 09:00:17;;;;;;;15.82;2.08;;;;;;;;;;4993792;28;20018;-76
2023/01/11 09:02:44;;;;;;;22.17;1.80;;;;;;;;;;4993489;28;20018;-76
2023/01/11 09:05:09;;;;;;;12.27;1.70;;;;;;;;;;4993032;28;20381;-76
2023/01/11 09:07:34;;;;;;;20.33;1.90;;;;;;;;;;4994123;28;20030;-76
2023/01/11 09:10:00;;;;;;;10.32;1.77;;;;;;;;;;5011263;28;20457;-75
2023/01/11 09:12:26;;;;;;;13.45;2.03;;;;;;;;;;5011483;28;20366;-75
2023/01/11 09:14:51;;;;;;;13.30;1.88;;;;;;;;;;4993623;28;20018;-75
2023/01/11 09:17:16;;;;;;;15.73;2.35;;;;;;;;;;4993025;28;20040;-76
2023/01/11 09:19:42;;;;;;;14.85;1.95;;;;;;;;;;5010567;28;20022;-76
2023/01/11 09:22:07;;;;;;;16.08;1.67;;;;;;;;;;5011100;28;20018;-76
2023/01/11 09:24:32;;;;;;;17.17;2.30;;;;;;;;;;4993648;28;20409;-76
2023/01/11 09:26:58;;;;;;;16.88;2.92;;;;;;;;;;4993824;28;20472;-76
2023/01/11 09:29:23;;;;;;;18.67;2.30;;;;;;;;;;5011439;28;20044;-76
2023/01/11 09:31:49;;;;;;;14.25;1.95;;;;;;;;;;5010949;28;20065;-76
2023/01/11 09:34:14;;;;;;;26.83;3.15;;;;;;;;;;5010364;28;20469;-75
2023/01/11 09:36:40;;;;;;;14.93;2.00;;;;;;;;;;4993349;28;20037;-77
2023/01/11 09:39:09;;;;;;;21.73;2.63;;;;;;;;;;4993419;28;20029;-75
2023/01/11 09:41:37;;;;;;;15.93;1.73;;;;;;;;;;5011357;28;20018;-76
2023/01/11 09:44:10;;;;;;;17.50;2.33;;;;;;;;;;4992955;28;20074;-76
2023/01/11 09:46:41;;;;;;;14.95;2.30;;;;;;;;;;4999554;28;20037;-75
2023/01/11 09:49:10;;;;;;;16.52;1.70;;;;;;;;;;4992820;28;20026;-76
2023/01/11 09:51:38;;;;;;;26.70;2.97;;;;;;;;;;5011441;28;20021;-76
2023/01/11 09:54:06;;;;;;;22.92;3.20;;;;;;;;;;4993025;28;20486;-76
2023/01/11 09:56:46;;;;;;;17.08;2.08;;;;;;;;;;5011100;28;20022;-75
2023/01/11 09:59:19;;;;;;;11.95;1.50;;;;;;;;;;5012522;28;20018;-75
2023/01/11 10:01:54;;;;;;;19.48;2.42;;;;;;;;;;4996145;28;20477;-75
2023/01/11 10:04:24;;;;;;;21.52;2.33;;;;;;;;;;5014288;28;20045;-75
2023/01/11 10:07:14;;;;;;;22.85;2.28;;;;;;;;;;5014651;28;20053;-75
2023/01/11 10:09:40;;;;;;;25.13;3.20;;;;;;;;;;4986651;28;20386;-75
2023/01/11 10:12:11;;;;;;;19.50;2.60;;;;;;;;;;5014229;28;20025;-75
2023/01/11 10:14:49;;;;;;;19.17;2.53;;;;;;;;;;5013943;28;20025;-76
2023/01/11 10:17:36;;;;;;;23.35;2.25;;;;;;;;;;5014160;28;20056;-75
2023/01/11 10:20:10;;;;;;;13.50;1.80;;;;;;;;;;5012978;28;20101;-75
2023/01/11 10:22:39;;;;;;;25.10;2.22;;;;;;;;;;5014207;28;20018;-75
2023/01/11 10:25:15;;;;;;;10.73;2.20;;;;;;;;;;5013735;28;20065;-75
2023/01/11 10:27:48;;;;;;;28.60;2.92;;;;;;;;;;4996300;28;20083;-76
2023/01/11 10:30:46;;;;;;;16.00;1.95;;;;;;;;;;5013033;28;20021;-76
2023/01/11 10:33:20;;;;;;;19.48;2.17;;;;;;;;;;5012431;28;20452;-75
2023/01/11 10:41:34;;;;;;;21.40;2.13;;;;;;;;;;5012420;28;20120;-76
2023/01/11 10:44:21;;;;;;;19.40;2.20;;;;;;;;;;4996332;28;20045;-76
2023/01/11 10:46:48;;;;;;;22.98;2.80;;;;;;;;;;5004830;28;20064;-75
2023/01/11 10:49:13;;;;;;;18.92;2.05;;;;;;;;;;5011267;28;20374;-76
2023/01/11 10:51:43;;;;;;;19.98;2.78;;;;;;;;;;5013747;28;20018;-76
2023/01/11 10:54:15;;;;;;;25.00;2.55;;;;;;;;;;5011312;28;20033;-76
2023/01/11 10:56:44;;;;;;;13.07;1.60;;;;;;;;;;5013317;28;20018;-75
2023/01/11 10:59:17;;;;;;;20.33;2.20;;;;;;;;;;4996343;28;20133;-74
2023/01/11 11:01:45;;;;;;;17.00;2.13;;;;;;;;;;5012952;28;20030;-75
2023/01/11 11:04:22;;;;;;;18.52;2.28;;;;;;;;;;5010997;28;20034;-76
2023/01/11 11:07:00;;;;;;;21.35;2.20;;;;;;;;;;5003504;28;20067;-75
2023/01/11 11:09:37;;;;;;;21.83;2.15;;;;;;;;;;5010864;28;20088;-75
2023/01/11 11:12:06;;;;;;;21.98;2.92;;;;;;;;;;5011802;28;20018;-75
2023/01/11 11:14:32;;;;;;;16.55;2.22;;;;;;;;;;5012046;28;20444;-75
2023/01/11 11:17:00;;;;;;;18.95;2.60;;;;;;;;;;5011051;28;20052;-75
2023/01/11 11:19:29;;;;;;;15.05;1.73;;;;;;;;;;5012004;28;20025;-75
2023/01/11 11:21:54;;;;;;;13.52;1.92;;;;;;;;;;4994191;28;20022;-75
2023/01/11 11:24:22;;;;;;;18.65;2.13;;;;;;;;;;5005538;28;20113;-75
2023/01/11 11:26:54;;;;;;;17.42;1.60;;;;;;;;;;5009613;28;20014;-75
2023/01/11 11:29:28;;;;;;;14.38;1.75;;;;;;;;;;5012071;28;20033;-75
2023/01/11 11:31:54;;;;;;;19.55;3.28;;;;;;;;;;5010366;28;20018;-75
2023/01/11 11:34:20;;;;;;;17.92;2.53;;;;;;;;;;4997337;28;20032;-75
2023/01/11 11:36:46;;;;;;;16.92;1.92;;;;;;;;;;4994894;28;20112;-75
2023/01/11 11:39:22;;;;;;;27.63;3.88;;;;;;;;;;5011779;28;20022;-75
2023/01/11 11:41:47;;;;;;;16.77;2.28;;;;;;;;;;5012384;28;20026;-75
2023/01/11 11:44:16;;;;;;;23.02;2.45;;;;;;;;;;5011468;28;20105;-75
2023/01/11 11:46:54;;;;;;;17.83;2.88;;;;;;;;;;5010595;28;20401;-75
2023/01/11 11:49:19;;;;;;;19.92;2.47;;;;;;;;;;5011606;28;20022;-75
2023/01/11 11:51:46;;;;;;;19.33;2.47;;;;;;;;;;5011626;28;20084;-75
2023/01/11 11:54:17;;;;;;;19.77;2.00;;;;;;;;;;5011931;28;20014;-75
2023/01/11 11:56:43;;;;;;;19.17;1.92;;;;;;;;;;4994658;28;20346;-75
2023/01/11 11:59:11;;;;;;;16.35;2.28;;;;;;;;;;5012223;28;20030;-75
2023/01/11 12:01:38;;;;;;;18.42;2.53;;;;;;;;;;4992318;28;20044;-75
2023/01/11 12:04:12;;;;;;;14.77;1.52;;;;;;;;;;5011969;28;20029;-76
2023/01/11 12:06:39;;;;;;;16.33;2.00;;;;;;;;;;4994418;28;20193;-76
2023/01/11 12:09:09;;;;;;;17.38;2.10;;;;;;;;;;5011925;28;20022;-75
2023/01/11 12:11:37;;;;;;;21.45;2.28;;;;;;;;;;4994171;28;20022;-75
2023/01/11 12:14:02;;;;;;;14.20;2.00;;;;;;;;;;5011832;28;20041;-75
2023/01/11 12:16:34;;;;;;;12.07;1.77;;;;;;;;;;4994032;28;21485;-75
2023/01/11 12:18:59;;;;;;;15.02;1.77;;;;;;;;;;4993276;28;20018;-75
2023/01/11 12:21:25;;;;;;;20.85;2.65;;;;;;;;;;5010861;28;20049;-75
2023/01/11 12:24:06;;;;;;;17.20;1.70;;;;;;;;;;4994357;28;20104;-75
2023/01/11 12:26:39;;;;;;;14.55;1.85;;;;;;;;;;5011620;28;20405;-75
2023/01/11 12:29:22;;;;;;;20.70;2.08;;;;;;;;;;4997021;28;20117;-75
2023/01/11 12:31:47;;;;;;;19.83;2.22;;;;;;;;;;5011081;28;20109;-75
2023/01/11 12:34:16;;;;;;;22.23;2.25;;;;;;;;;;4994132;28;20041;-75
2023/01/11 12:36:47;;;;;;;19.33;2.08;;;;;;;;;;5010641;28;20021;-75
2023/01/11 12:39:12;;;;;;;12.25;2.22;;;;;;;;;;5011857;28;20014;-74
2023/01/11 12:41:48;;;;;;;18.67;1.45;;;;;;;;;;5011268;28;20040;-75
2023/01/11 12:44:32;;;;;;;15.85;2.00;;;;;;;;;;5002066;28;20037;-75
2023/01/11 12:46:57;;;;;;;14.25;1.52;;;;;;;;;;5002150;28;20100;-75
2023/01/11 12:49:23;;;;;;;20.08;2.58;;;;;;;;;;5002608;28;20678;-76
2023/01/11 12:52:07;;;;;;;12.13;2.25;;;;;;;;;;5007906;28;20032;-76
2023/01/11 12:54:50;;;;;;;21.00;2.72;;;;;;;;;;5008872;28;20072;-75
2023/01/11 12:57:34;;;;;;;16.13;2.35;;;;;;;;;;4994522;28;20076;-75
2023/01/11 13:00:21;;;;;;;20.50;2.45;;;;;;;;;;4999261;28;20101;-75
2023/01/11 13:03:18;;;;;;;19.35;3.00;;;;;;;;;;5009627;28;20030;-75
2023/01/11 13:05:55;;;;;;;20.40;2.30;;;;;;;;;;4971849;28;20038;-76
2023/01/11 13:08:26;;;;;;;17.75;2.30;;;;;;;;;;4993188;28;20037;-75
2023/01/11 13:11:33;;;;;;;16.58;2.00;;;;;;;;;;5010743;28;20033;-75
2023/01/11 13:14:17;;;;;;;17.25;1.92;;;;;;;;;;4999903;28;20144;-75
2023/01/11 13:16:52;;;;;;;20.45;2.25;;;;;;;;;;5010645;28;20030;-75
2023/01/11 13:19:23;;;;;;;13.77;1.77;;;;;;;;;;4993218;28;20036;-75
2023/01/11 13:21:54;;;;;;;19.02;2.35;;;;;;;;;;4991360;28;20408;-76
2023/01/11 13:24:25;;;;;;;22.23;2.35;;;;;;;;;;4990025;28;20131;-75
2023/01/11 13:26:51;;;;;;;24.80;2.60;;;;;;;;;;4995745;28;20010;-75
2023/01/11 13:29:22;;;;;;;29.83;2.60;;;;;;;;;;5010335;28;20022;-75
2023/01/11 13:31:48;;;;;;;15.82;2.30;;;;;;;;;;5010563;28;20010;-75
2023/01/11 13:34:21;;;;;;;15.77;1.92;;;;;;;;;;5013549;28;20026;-76
2023/01/11 13:36:50;;;;;;;20.23;2.10;;;;;;;;;;5012948;28;20044;-75
2023/01/11 13:39:20;;;;;;;17.65;2.35;;;;;;;;;;5012758;28;20022;-75
2023/01/11 13:41:53;;;;;;;18.30;2.17;;;;;;;;;;5012573;28;20034;-75
2023/01/11 13:44:45;;;;;;;19.10;2.25;;;;;;;;;;5010218;28;20116;-75
2023/01/11 13:47:10;;;;;;;21.30;2.40;;;;;;;;;;5011965;28;20041;-75
2023/01/11 13:49:52;;;;;;;17.08;2.22;;;;;;;;;;4995962;28;20018;-75
2023/01/11 13:52:36;;;;;;;16.17;1.80;;;;;;;;;;5011905;28;20026;-75
2023/01/11 13:55:10;;;;;;;14.63;1.35;;;;;;;;;;5001905;28;20013;-76
2023/01/11 13:57:35;;;;;;;17.02;2.13;;;;;;;;;;4991291;28;20026;-75
2023/01/11 14:00:03;;;;;;;17.70;2.13;;;;;;;;;;4996395;28;20113;-75
2023/01/11 14:02:43;;;;;;;8.68;1.60;;;;;;;;;;4997379;28;20037;-76
2023/01/11 14:05:17;;;;;;;18.58;2.42;;;;;;;;;;5001210;28;20083;-75
2023/01/11 14:07:48;;;;;;;15.75;2.25;;;;;;;;;;4995271;28;20045;-76
2023/01/11 14:10:27;;;;;;;16.37;1.93;;;;;;;;;;4995894;28;20032;-75
2023/01/11 14:13:04;;;;;;;15.52;2.40;;;;;;;;;;5013363;28;20014;-75
2023/01/11 14:15:31;;;;;;;14.35;2.22;;;;;;;;;;5013046;28;20025;-75
2023/01/11 14:18:09;;;;;;;15.75;1.92;;;;;;;;;;5013556;28;20034;-75
2023/01/11 14:21:01;;;;;;;15.43;2.17;;;;;;;;;;5013608;28;20410;-75
2023/01/11 14:23:39;;;;;;;11.98;1.95;;;;;;;;;;5007448;28;20386;-75
2023/01/11 14:26:07;;;;;;;23.50;2.45;;;;;;;;;;5013808;28;20029;-75
2023/01/11 14:28:35;;;;;;;10.15;1.73;;;;;;;;;;5013012;28;20402;-75
2023/01/11 14:31:27;;;;;;;17.33;1.80;;;;;;;;;;5013071;28;20068;-75
2023/01/11 14:33:55;;;;;;;9.05;1.67;;;;;;;;;;5005831;28;20453;-76
2023/01/11 14:36:39;;;;;;;8.02;1.35;;;;;;;;;;4994969;28;20017;-75
2023/01/11 14:39:04;;;;;;;14.90;1.95;;;;;;;;;;5006615;28;20022;-75
2023/01/11 14:41:44;;;;;;;14.13;1.75;;;;;;;;;;4995400;28;20026;-75
2023/01/11 14:44:16;;;;;;;13.23;1.55;;;;;;;;;;5006514;28;20116;-75
2023/01/11 14:47:00;;;;;;;13.45;1.63;;;;;;;;;;4996239;28;20053;-75
2023/01/11 14:49:47;;;;;;;14.98;2.00;;;;;;;;;;5012728;28;20057;-75
2023/01/11 14:52:20;;;;;;;11.95;1.27;;;;;;;;;;5012630;28;20526;-75
2023/01/11 14:54:46;;;;;;;11.00;2.20;;;;;;;;;;5012447;28;20430;-76
2023/01/11 14:57:38;;;;;;;12.05;1.50;;;;;;;;;;4995854;28;20097;-76
2023/01/11 15:00:24;;;;;;;23.33;3.90;;;;;;;;;;4954546;28;20022;-75
2023/01/11 15:03:09;;;;;;;12.00;2.72;;;;;;;;;;4965611;28;20426;-75
2023/01/11 15:05:36;;;;;;;26.60;2.17;;;;;;;;;;5011838;28;20021;-75
2023/01/11 15:08:14;;;;;;;11.73;2.00;;;;;;;;;;5010294;28;20032;-75
2023/01/11 15:10:40;;;;;;;13.25;2.15;;;;;;;;;;5012159;28;20484;-75
2023/01/11 15:13:09;;;;;;;11.57;1.33;;;;;;;;;;4994091;28;20026;-76
2023/01/11 15:18:21;;;;;;;16.10;1.92;;;;;;;;;;5011388;28;20036;-75
2023/01/11 15:20:54;;;;;;;12.25;1.50;;;;;;;;;;5001476;28;20075;-75